Time;durP1;ratioP1;P1;durP2;ratioP2;P2;SDS_P1;SDS_P2;PMS_P1;PMS_P2;Temp;Humidity;BMP_temperature;BMP_pressure;BME280_temperature;BME280_humidity;BME280_pressure;Samples;Min_cycle;Max_cycle;Signal;HPM_P1;HPM_P2
2022/08/22 00:00:56;;;;;;;;;4.80;3.20;;;;;;;;5019351;28;8833;-81
2022/08/22 00:03:38;;;;;;;;;3.40;3.00;;;;;;;;5025931;28;8916;-78
2022/08/22 00:06:12;;;;;;;;;4.80;2.60;;;;;;;;5028668;28;8884;-78
2022/08/22 00:08:50;;;;;;;;;3.00;3.00;;;;;;;;5026641;28;8868;-77
2022/08/22 00:11:25;;;;;;;;;2.40;2.00;;;;;;;;5030517;28;8881;-78
2022/08/22 00:13:59;;;;;;;;;4.00;4.00;;;;;;;;5030458;28;8900;-78
2022/08/22 00:16:32;;;;;;;;;5.00;5.00;;;;;;;;5011870;28;9614;-77
2022/08/22 00:19:08;;;;;;;;;4.00;4.00;;;;;;;;5007400;28;8876;-80
2022/08/22 00:21:42;;;;;;;;;4.00;4.00;;;;;;;;5024686;28;8942;-82
2022/08/22 00:24:16;;;;;;;;;4.00;4.00;;;;;;;;5009474;28;8865;-82
2022/08/22 00:26:48;;;;;;;;;6.60;2.00;;;;;;;;5022426;28;9003;-79
2022/08/22 00:29:19;;;;;;;;;3.40;3.40;;;;;;;;5021720;28;8894;-79
2022/08/22 00:31:51;;;;;;;;;3.80;3.00;;;;;;;;5021723;28;8844;-81
2022/08/22 00:34:25;;;;;;;;;5.80;2.00;;;;;;;;5005100;28;8933;-81
2022/08/22 00:37:02;;;;;;;;;3.00;3.00;;;;;;;;5024317;28;8876;-81
2022/08/22 00:39:34;;;;;;;;;4.80;4.80;;;;;;;;5022584;28;9670;-81
2022/08/22 00:42:18;;;;;;;;;4.40;4.40;;;;;;;;5024455;28;8916;-82
2022/08/22 00:45:24;;;;;;;;;3.80;3.80;;;;;;;;5022404;28;8876;-79
2022/08/22 00:48:08;;;;;;;;;4.60;3.60;;;;;;;;5021771;28;9675;-81
2022/08/22 00:51:12;;;;;;;;;4.80;3.80;;;;;;;;5020653;28;9634;-78
2022/08/22 00:53:50;;;;;;;;;4.20;4.20;;;;;;;;5014266;28;9689;-81
2022/08/22 00:56:47;;;;;;;;;3.60;3.00;;;;;;;;5020149;28;8899;-79
2022/08/22 00:59:45;;;;;;;;;9.80;4.00;;;;;;;;4983638;28;8987;-81
2022/08/22 01:02:28;;;;;;;;;4.75;4.00;;;;;;;;5017129;28;8855;-81
2022/08/22 01:05:17;;;;;;;;;4.00;3.00;;;;;;;;5023154;28;8872;-81
2022/08/22 01:07:59;;;;;;;;;3.00;3.00;;;;;;;;5018994;28;8910;-82
2022/08/22 01:10:41;;;;;;;;;4.60;4.60;;;;;;;;5021103;28;8868;-82
2022/08/22 01:13:26;;;;;;;;;5.80;4.00;;;;;;;;5023578;28;8882;-81
2022/08/22 01:16:01;;;;;;;;;4.20;4.20;;;;;;;;5020842;28;8911;-79
2022/08/22 01:18:49;;;;;;;;;6.40;5.00;;;;;;;;5024798;28;8872;-80
2022/08/22 01:21:52;;;;;;;;;3.60;3.60;;;;;;;;5014123;28;8859;-79
2022/08/22 01:25:20;;;;;;;;;4.00;4.00;;;;;;;;5021779;28;9003;-78
2022/08/22 01:28:16;;;;;;;;;4.00;4.00;;;;;;;;5021532;28;8992;-81
2022/08/22 01:31:21;;;;;;;;;4.50;3.50;;;;;;;;5024014;28;8859;-79
2022/08/22 01:34:37;;;;;;;;;4.75;3.00;;;;;;;;5022175;28;8996;-78
2022/08/22 01:37:24;;;;;;;;;2.25;2.25;;;;;;;;5021709;28;8880;-79
2022/08/22 01:40:14;;;;;;;;;4.25;3.75;;;;;;;;5005015;28;8900;-79
2022/08/22 01:42:59;;;;;;;;;7.00;4.00;;;;;;;;5022956;28;8857;-79
2022/08/22 01:46:00;;;;;;;;;6.50;4.00;;;;;;;;5020619;28;8970;-79
2022/08/22 01:48:38;;;;;;;;;5.25;4.00;;;;;;;;5020883;28;8885;-79
2022/08/22 01:51:16;;;;;;;;;4.75;4.75;;;;;;;;5017286;28;8938;-83
2022/08/22 01:53:48;;;;;;;;;4.75;3.50;;;;;;;;5001794;28;8880;-82
2022/08/22 01:56:18;;;;;;;;;3.00;3.00;;;;;;;;5020858;28;9591;-81
2022/08/22 01:58:55;;;;;;;;;3.25;3.25;;;;;;;;5019443;28;8880;-80
2022/08/22 02:01:33;;;;;;;;;4.25;4.25;;;;;;;;5020497;28;8841;-82
2022/08/22 02:04:05;;;;;;;;;4.00;3.50;;;;;;;;5019581;28;8862;-80
2022/08/22 02:06:42;;;;;;;;;3.75;3.75;;;;;;;;5020133;28;8892;-76
2022/08/22 02:09:20;;;;;;;;;4.25;4.25;;;;;;;;5017214;28;8883;-77
2022/08/22 02:11:52;;;;;;;;;2.75;2.75;;;;;;;;5021510;28;8884;-81
2022/08/22 02:14:40;;;;;;;;;4.75;4.50;;;;;;;;5009101;28;8867;-77
2022/08/22 02:17:14;;;;;;;;;4.00;4.00;;;;;;;;5023974;28;8873;-78
2022/08/22 02:19:47;;;;;;;;;5.50;4.50;;;;;;;;5023286;28;8935;-82
2022/08/22 02:22:27;;;;;;;;;5.00;5.00;;;;;;;;5026413;28;8877;-80
2022/08/22 02:25:04;;;;;;;;;4.50;3.00;;;;;;;;5022985;28;8853;-80
2022/08/22 02:27:37;;;;;;;;;5.00;3.50;;;;;;;;5004623;28;9601;-82
2022/08/22 02:30:08;;;;;;;;;3.25;3.25;;;;;;;;5020728;28;8892;-80
2022/08/22 02:32:46;;;;;;;;;4.00;4.00;;;;;;;;5021327;28;8970;-81
2022/08/22 02:35:24;;;;;;;;;4.00;4.00;;;;;;;;5019472;28;8894;-80
2022/08/22 02:38:01;;;;;;;;;6.75;5.25;;;;;;;;5019438;28;8861;-79
2022/08/22 02:40:33;;;;;;;;;7.00;5.00;;;;;;;;5021811;28;8872;-81
2022/08/22 02:43:08;;;;;;;;;6.25;6.00;;;;;;;;5020251;28;8856;-82
2022/08/22 02:45:40;;;;;;;;;5.25;5.25;;;;;;;;5019604;28;9766;-76
2022/08/22 02:48:15;;;;;;;;;6.75;4.75;;;;;;;;5019995;28;8974;-79
2022/08/22 02:50:51;;;;;;;;;5.00;4.50;;;;;;;;5019406;28;8880;-80
2022/08/22 02:53:28;;;;;;;;;5.00;3.25;;;;;;;;5018425;28;9030;-77
2022/08/22 02:56:00;;;;;;;;;4.75;4.75;;;;;;;;5020006;28;9627;-79
2022/08/22 02:58:35;;;;;;;;;4.25;4.25;;;;;;;;5018537;28;8841;-76
2022/08/22 03:01:39;;;;;;;;;8.75;6.75;;;;;;;;5021763;28;8817;-79
2022/08/22 03:04:22;;;;;;;;;6.50;4.75;;;;;;;;4974745;28;8920;-81
2022/08/22 03:07:12;;;;;;;;;3.25;3.25;;;;;;;;5020240;28;8923;-78
2022/08/22 03:09:46;;;;;;;;;3.50;3.50;;;;;;;;5019472;28;9607;-81
2022/08/22 03:12:22;;;;;;;;;5.00;3.00;;;;;;;;5019848;28;8848;-81
2022/08/22 03:15:05;;;;;;;;;5.00;5.00;;;;;;;;5020789;28;9610;-81
2022/08/22 03:17:39;;;;;;;;;5.00;3.25;;;;;;;;5017302;28;8983;-77
2022/08/22 03:20:13;;;;;;;;;6.00;4.75;;;;;;;;5005017;28;8884;-78
2022/08/22 03:22:47;;;;;;;;;5.00;5.00;;;;;;;;5017253;28;8851;-80
2022/08/22 03:25:25;;;;;;;;;3.75;3.00;;;;;;;;5016762;28;8881;-79
2022/08/22 03:27:58;;;;;;;;;6.00;5.00;;;;;;;;5020972;28;8880;-77
2022/08/22 03:30:33;;;;;;;;;5.50;3.25;;;;;;;;5018583;28;8773;-82
2022/08/22 03:33:16;;;;;;;;;8.25;6.00;;;;;;;;5021609;28;8865;-79
2022/08/22 03:36:00;;;;;;;;;5.75;5.75;;;;;;;;4999670;28;9611;-75
2022/08/22 03:38:38;;;;;;;;;5.50;4.50;;;;;;;;5016387;28;9003;-81
2022/08/22 03:41:30;;;;;;;;;5.00;4.75;;;;;;;;5018922;28;8877;-81
2022/08/22 03:44:12;;;;;;;;;7.00;3.75;;;;;;;;5014209;28;8853;-80
2022/08/22 03:47:03;;;;;;;;;6.50;6.50;;;;;;;;5019734;28;8909;-77
2022/08/22 03:50:00;;;;;;;;;7.00;5.00;;;;;;;;5020175;28;8861;-82
2022/08/22 03:53:09;;;;;;;;;5.00;5.00;;;;;;;;5002762;28;8994;-80
2022/08/22 03:55:55;;;;;;;;;5.00;4.00;;;;;;;;5001684;28;8893;-76
2022/08/22 03:58:38;;;;;;;;;4.00;4.00;;;;;;;;5020026;28;8881;-80
2022/08/22 04:01:34;;;;;;;;;7.00;6.50;;;;;;;;5018380;28;8833;-78
2022/08/22 04:04:24;;;;;;;;;5.50;5.50;;;;;;;;5016847;28;8876;-78
2022/08/22 04:07:16;;;;;;;;;6.00;4.00;;;;;;;;5020427;28;9453;-80
2022/08/22 04:10:15;;;;;;;;;4.75;4.50;;;;;;;;5018776;28;8852;-79
2022/08/22 04:12:55;;;;;;;;;5.00;5.00;;;;;;;;5017908;28;8902;-78
2022/08/22 04:15:46;;;;;;;;;5.00;5.00;;;;;;;;5021250;28;8882;-80
2022/08/22 04:18:37;;;;;;;;;5.00;5.00;;;;;;;;5018069;28;8889;-80
2022/08/22 04:21:37;;;;;;;;;7.00;6.00;;;;;;;;5004599;28;8899;-80
2022/08/22 04:24:34;;;;;;;;;8.50;7.50;;;;;;;;5021788;28;8976;-79
2022/08/22 04:27:05;;;;;;;;;5.75;5.75;;;;;;;;5024268;28;8884;-81
2022/08/22 04:29:45;;;;;;;;;6.25;5.00;;;;;;;;5026453;28;8861;-77
2022/08/22 04:32:20;;;;;;;;;6.50;5.00;;;;;;;;5021508;28;8797;-81
2022/08/22 04:34:50;;;;;;;;;8.75;6.00;;;;;;;;5016420;28;8877;-80
2022/08/22 04:37:22;;;;;;;;;5.50;4.75;;;;;;;;5020502;28;8897;-77
2022/08/22 04:39:54;;;;;;;;;5.25;5.25;;;;;;;;5016059;28;9051;-81
2022/08/22 04:42:26;;;;;;;;;6.00;6.00;;;;;;;;5016302;28;9005;-79
2022/08/22 04:44:56;;;;;;;;;6.75;6.00;;;;;;;;5018935;28;8857;-77
2022/08/22 04:47:30;;;;;;;;;6.25;6.25;;;;;;;;5016094;28;8879;-78
2022/08/22 04:50:03;;;;;;;;;5.00;5.00;;;;;;;;5021151;28;8849;-80
2022/08/22 04:52:39;;;;;;;;;5.75;5.75;;;;;;;;5006946;28;8971;-77
2022/08/22 04:55:15;;;;;;;;;6.25;5.75;;;;;;;;5022849;28;8903;-77
2022/08/22 04:57:48;;;;;;;;;4.50;4.50;;;;;;;;5022339;28;8970;-78
2022/08/22 05:00:16;;;;;;;;;6.25;5.50;;;;;;;;5023234;28;8900;-77
2022/08/22 05:02:49;;;;;;;;;4.50;4.50;;;;;;;;5021097;28;8865;-82
2022/08/22 05:05:21;;;;;;;;;6.25;5.00;;;;;;;;5003936;28;8881;-76
2022/08/22 05:07:51;;;;;;;;;5.75;5.75;;;;;;;;5019268;28;8897;-79
2022/08/22 05:10:21;;;;;;;;;6.25;6.25;;;;;;;;5022377;28;8935;-82
2022/08/22 05:12:53;;;;;;;;;5.75;4.00;;;;;;;;5023316;28;8897;-79
2022/08/22 05:15:22;;;;;;;;;6.75;6.75;;;;;;;;5006306;28;9615;-82
2022/08/22 05:17:55;;;;;;;;;5.50;5.50;;;;;;;;5018784;28;8982;-81
2022/08/22 05:20:26;;;;;;;;;6.00;5.75;;;;;;;;5023543;28;8868;-82
2022/08/22 05:22:58;;;;;;;;;4.00;4.00;;;;;;;;5016007;28;8892;-81
2022/08/22 05:25:28;;;;;;;;;7.25;7.00;;;;;;;;5022767;28;8914;-82
2022/08/22 05:28:06;;;;;;;;;6.75;6.75;;;;;;;;5018828;28;9685;-81
2022/08/22 05:30:34;;;;;;;;;10.00;8.00;;;;;;;;5022169;28;8831;-80
2022/08/22 05:33:13;;;;;;;;;6.75;6.00;;;;;;;;5022307;28;8917;-80
2022/08/22 05:35:44;;;;;;;;;5.50;5.50;;;;;;;;5020160;28;8896;-83
2022/08/22 05:38:16;;;;;;;;;5.75;5.25;;;;;;;;5019177;28;8887;-78
2022/08/22 05:40:44;;;;;;;;;6.50;6.00;;;;;;;;5022141;28;9017;-82
2022/08/22 05:43:13;;;;;;;;;6.50;6.50;;;;;;;;5023100;28;8877;-80
2022/08/22 05:45:40;;;;;;;;;7.25;5.25;;;;;;;;5023169;28;8864;-81
2022/08/22 05:48:15;;;;;;;;;6.00;6.00;;;;;;;;5020087;28;8881;-78
2022/08/22 05:50:44;;;;;;;;;6.25;6.25;;;;;;;;5007338;28;8877;-75
2022/08/22 05:53:15;;;;;;;;;7.75;6.25;;;;;;;;5020956;28;8872;-77
2022/08/22 05:55:52;;;;;;;;;6.25;6.25;;;;;;;;5019560;28;8864;-78
2022/08/22 05:58:46;;;;;;;;;8.00;6.50;;;;;;;;5021837;28;8873;-77
2022/08/22 06:01:26;;;;;;;;;10.00;8.50;;;;;;;;5018605;28;8825;-77
2022/08/22 06:04:14;;;;;;;;;7.00;7.00;;;;;;;;5023470;28;8873;-76
2022/08/22 06:06:48;;;;;;;;;8.25;6.00;;;;;;;;5021604;28;8873;-77
2022/08/22 06:09:20;;;;;;;;;8.00;8.00;;;;;;;;5021693;28;8825;-77
2022/08/22 06:11:52;;;;;;;;;7.75;6.50;;;;;;;;5021037;28;8868;-74
2022/08/22 06:14:28;;;;;;;;;8.75;7.00;;;;;;;;5021270;28;8877;-75
2022/08/22 06:17:02;;;;;;;;;5.00;5.00;;;;;;;;5022810;28;8872;-76
2022/08/22 06:19:33;;;;;;;;;6.75;6.75;;;;;;;;5021507;28;8876;-75
2022/08/22 06:22:01;;;;;;;;;5.50;3.25;;;;;;;;5023704;28;8889;-75
2022/08/22 06:24:29;;;;;;;;;7.25;7.25;;;;;;;;5005666;28;8892;-75
2022/08/22 06:27:02;;;;;;;;;8.50;7.00;;;;;;;;5021760;28;8873;-76
2022/08/22 06:29:34;;;;;;;;;10.25;7.50;;;;;;;;5019903;28;8880;-77
2022/08/22 06:32:10;;;;;;;;;9.00;8.25;;;;;;;;5021977;28;8820;-76
2022/08/22 06:34:41;;;;;;;;;7.00;6.00;;;;;;;;5022009;28;8888;-77
2022/08/22 06:37:13;;;;;;;;;4.75;3.00;;;;;;;;5021681;28;8884;-74
2022/08/22 06:39:43;;;;;;;;;10.50;7.50;;;;;;;;5020669;28;9619;-75
2022/08/22 06:42:12;;;;;;;;;8.00;8.00;;;;;;;;5021519;28;8868;-75
2022/08/22 06:44:45;;;;;;;;;8.25;7.25;;;;;;;;5021532;28;8861;-76
2022/08/22 06:47:22;;;;;;;;;9.50;8.50;;;;;;;;5019665;28;8930;-76
2022/08/22 06:49:52;;;;;;;;;7.00;6.75;;;;;;;;5022013;28;8865;-75
2022/08/22 06:52:22;;;;;;;;;8.00;6.00;;;;;;;;5020617;28;8864;-76
2022/08/22 06:54:57;;;;;;;;;5.00;5.00;;;;;;;;5039452;28;8927;-77
2022/08/22 06:57:28;;;;;;;;;6.00;6.00;;;;;;;;5021607;28;8916;-76
2022/08/22 06:59:56;;;;;;;;;6.00;6.00;;;;;;;;5021969;28;8999;-75
2022/08/22 07:02:30;;;;;;;;;7.00;5.25;;;;;;;;5019289;28;9661;-76
2022/08/22 07:04:59;;;;;;;;;7.75;6.00;;;;;;;;5018034;28;9047;-78
2022/08/22 07:07:27;;;;;;;;;6.25;6.25;;;;;;;;5019291;28;8991;-76
2022/08/22 07:09:56;;;;;;;;;8.25;6.50;;;;;;;;5021960;28;8893;-75
2022/08/22 07:12:27;;;;;;;;;7.50;5.50;;;;;;;;5020622;28;8885;-77
2022/08/22 07:15:00;;;;;;;;;6.75;6.75;;;;;;;;5020692;28;8888;-76
2022/08/22 07:17:31;;;;;;;;;5.25;5.25;;;;;;;;5015714;28;8869;-76
2022/08/22 07:20:03;;;;;;;;;7.50;6.75;;;;;;;;5018840;28;8891;-76
2022/08/22 07:22:33;;;;;;;;;6.25;6.25;;;;;;;;5019230;28;8877;-77
2022/08/22 07:25:04;;;;;;;;;4.60;4.60;;;;;;;;5021228;28;8984;-76
2022/08/22 07:27:47;;;;;;;;;8.00;7.00;;;;;;;;5021315;28;8885;-76
2022/08/22 07:30:17;;;;;;;;;6.75;6.75;;;;;;;;5016199;28;8887;-76
2022/08/22 07:32:52;;;;;;;;;6.00;6.00;;;;;;;;5011212;28;8887;-77
2022/08/22 07:35:25;;;;;;;;;7.00;5.20;;;;;;;;5019652;28;8869;-77
2022/08/22 07:38:01;;;;;;;;;4.00;4.00;;;;;;;;5013631;28;8893;-76
2022/08/22 07:40:33;;;;;;;;;7.75;7.50;;;;;;;;5017174;28;8892;-74
2022/08/22 07:43:04;;;;;;;;;7.40;5.80;;;;;;;;5014913;28;9011;-74
2022/08/22 07:45:43;;;;;;;;;5.60;5.40;;;;;;;;5020662;28;8865;-75
2022/08/22 07:48:21;;;;;;;;;7.80;6.00;;;;;;;;5019082;28;8894;-76
2022/08/22 07:50:59;;;;;;;;;7.75;6.00;;;;;;;;5019279;28;8885;-75
2022/08/22 07:53:34;;;;;;;;;6.00;5.75;;;;;;;;5019463;28;8894;-75
2022/08/22 07:56:03;;;;;;;;;8.00;5.40;;;;;;;;5014362;28;8873;-77
2022/08/22 07:58:33;;;;;;;;;5.00;5.00;;;;;;;;5003775;28;9591;-73
2022/08/22 08:01:01;;;;;;;;;5.80;5.40;;;;;;;;5020606;28;8789;-74
2022/08/22 08:03:30;;;;;;;;;6.40;6.00;;;;;;;;5019449;28;8947;-73
2022/08/22 08:06:00;;;;;;;;;6.40;6.20;;;;;;;;5005261;28;8852;-73
2022/08/22 08:08:34;;;;;;;;;3.60;3.20;;;;;;;;5004424;28;8928;-75
2022/08/22 08:11:03;;;;;;;;;7.40;7.40;;;;;;;;5017891;28;8856;-76
2022/08/22 08:13:35;;;;;;;;;6.00;5.00;;;;;;;;5018238;28;8917;-76
2022/08/22 08:16:04;;;;;;;;;6.40;6.40;;;;;;;;5021031;28;8888;-75
2022/08/22 08:18:33;;;;;;;;;6.60;5.80;;;;;;;;5016301;28;8864;-75
2022/08/22 08:21:04;;;;;;;;;4.20;4.20;;;;;;;;5019882;28;8880;-74
2022/08/22 08:23:37;;;;;;;;;6.00;6.00;;;;;;;;5019923;28;8876;-76
2022/08/22 08:26:09;;;;;;;;;8.60;6.80;;;;;;;;5023559;28;8893;-75
2022/08/22 08:28:40;;;;;;;;;7.80;6.20;;;;;;;;5022877;28;8859;-75
2022/08/22 08:31:13;;;;;;;;;6.60;5.60;;;;;;;;5012468;28;8850;-75
2022/08/22 08:33:44;;;;;;;;;7.40;5.80;;;;;;;;5023580;28;8860;-75
2022/08/22 08:36:27;;;;;;;;;7.20;6.00;;;;;;;;5024315;28;8852;-76
2022/08/22 08:39:00;;;;;;;;;9.80;7.00;;;;;;;;5020100;28;8891;-74
2022/08/22 08:41:38;;;;;;;;;6.40;5.20;;;;;;;;5025186;28;8967;-75
2022/08/22 08:44:17;;;;;;;;;6.80;6.40;;;;;;;;5023352;28;9778;-75
2022/08/22 08:46:59;;;;;;;;;6.80;5.60;;;;;;;;5023769;28;8868;-75
2022/08/22 08:49:57;;;;;;;;;7.20;6.60;;;;;;;;5022704;28;9727;-75
2022/08/22 08:52:40;;;;;;;;;6.00;6.00;;;;;;;;4998518;28;8881;-74
2022/08/22 08:55:18;;;;;;;;;6.00;6.00;;;;;;;;5021242;28;8875;-74
2022/08/22 08:57:59;;;;;;;;;5.40;5.00;;;;;;;;5016824;28;8920;-74
2022/08/22 09:00:43;;;;;;;;;7.00;6.00;;;;;;;;5019478;28;8796;-75
2022/08/22 09:03:17;;;;;;;;;7.40;5.40;;;;;;;;5022223;28;8886;-75
2022/08/22 09:06:03;;;;;;;;;7.00;5.00;;;;;;;;5013796;28;8887;-75
2022/08/22 09:09:16;;;;;;;;;6.00;6.00;;;;;;;;5015979;28;8879;-74
2022/08/22 09:12:20;;;;;;;;;5.20;5.00;;;;;;;;4960768;28;8851;-78
2022/08/22 09:15:11;;;;;;;;;5.00;5.00;;;;;;;;5017639;28;8900;-76
2022/08/22 09:18:01;;;;;;;;;8.60;5.80;;;;;;;;5018619;28;9019;-78
2022/08/22 09:20:49;;;;;;;;;5.00;5.00;;;;;;;;5016768;28;8864;-76
2022/08/22 09:24:04;;;;;;;;;4.40;4.40;;;;;;;;5002425;28;8868;-77
2022/08/22 09:26:40;;;;;;;;;6.00;6.00;;;;;;;;4976689;28;8873;-77
2022/08/22 09:29:27;;;;;;;;;3.80;3.80;;;;;;;;5021307;28;8882;-75
2022/08/22 09:32:06;;;;;;;;;8.00;7.40;;;;;;;;5021812;28;8820;-75
2022/08/22 09:34:55;;;;;;;;;6.80;6.00;;;;;;;;5023736;28;8892;-75
2022/08/22 09:37:33;;;;;;;;;7.80;4.60;;;;;;;;5016535;28;9003;-74
2022/08/22 09:40:05;;;;;;;;;5.20;5.20;;;;;;;;5020254;28;8978;-76
2022/08/22 09:42:40;;;;;;;;;5.00;4.60;;;;;;;;5020398;28;8860;-76
2022/08/22 09:45:44;;;;;;;;;5.00;5.00;;;;;;;;5021414;28;8983;-75
2022/08/22 09:48:37;;;;;;;;;5.60;4.40;;;;;;;;4953782;28;8899;-78
2022/08/22 09:51:17;;;;;;;;;5.80;5.00;;;;;;;;5014566;28;8898;-76
2022/08/22 09:53:56;;;;;;;;;4.00;4.00;;;;;;;;5017271;28;8971;-74
2022/08/22 09:56:38;;;;;;;;;3.80;3.80;;;;;;;;5009998;28;8945;-77
2022/08/22 09:59:10;;;;;;;;;5.20;5.20;;;;;;;;5019769;28;8893;-74
2022/08/22 10:01:46;;;;;;;;;4.40;4.40;;;;;;;;5019970;28;8921;-73
2022/08/22 10:04:44;;;;;;;;;3.60;3.20;;;;;;;;5022870;28;9016;-73
2022/08/22 10:07:31;;;;;;;;;5.00;5.00;;;;;;;;5021337;28;8892;-76
2022/08/22 10:10:06;;;;;;;;;5.20;4.20;;;;;;;;5019517;28;8873;-72
2022/08/22 10:12:41;;;;;;;;;4.00;4.00;;;;;;;;5018326;28;8864;-75
2022/08/22 10:15:19;;;;;;;;;4.40;4.40;;;;;;;;5018046;28;9019;-75
2022/08/22 10:17:56;;;;;;;;;1.80;1.80;;;;;;;;5017146;28;8873;-78
2022/08/22 10:20:29;;;;;;;;;2.40;2.40;;;;;;;;5016985;28;8872;-75
2022/08/22 10:23:04;;;;;;;;;2.00;2.00;;;;;;;;5020302;28;8877;-74
2022/08/22 10:25:38;;;;;;;;;2.00;2.00;;;;;;;;5017345;28;8868;-76
2022/08/22 10:28:20;;;;;;;;;3.00;3.00;;;;;;;;5014909;28;8946;-77
2022/08/22 10:30:55;;;;;;;;;3.80;3.80;;;;;;;;5019523;28;8935;-77
2022/08/22 10:33:28;;;;;;;;;1.80;1.80;;;;;;;;5017364;28;9755;-76
2022/08/22 10:36:03;;;;;;;;;3.00;3.00;;;;;;;;5020340;28;8885;-74
2022/08/22 10:38:34;;;;;;;;;4.00;2.60;;;;;;;;5022648;28;8880;-74
2022/08/22 10:41:07;;;;;;;;;3.60;3.60;;;;;;;;5020766;28;8891;-73
2022/08/22 10:43:43;;;;;;;;;1.80;1.80;;;;;;;;5023529;28;8856;-73
2022/08/22 10:46:13;;;;;;;;;3.00;3.00;;;;;;;;5019311;28;8911;-74
2022/08/22 10:48:48;;;;;;;;;2.00;2.00;;;;;;;;5020598;28;8881;-75
2022/08/22 10:51:29;;;;;;;;;1.00;1.00;;;;;;;;5017086;28;9744;-72
2022/08/22 10:54:17;;;;;;;;;2.40;2.40;;;;;;;;5016351;28;8892;-73
2022/08/22 10:56:50;;;;;;;;;1.20;1.20;;;;;;;;5021121;28;8959;-74
2022/08/22 10:59:30;;;;;;;;;2.00;2.00;;;;;;;;4983653;28;9621;-75
2022/08/22 11:02:13;;;;;;;;;3.20;2.60;;;;;;;;5017003;28;8849;-77
2022/08/22 11:05:03;;;;;;;;;2.00;2.00;;;;;;;;4998306;28;8868;-73
2022/08/22 11:07:45;;;;;;;;;2.40;2.40;;;;;;;;5018589;28;9415;-72
2022/08/22 11:10:22;;;;;;;;;2.40;2.00;;;;;;;;5007130;28;8884;-74
2022/08/22 11:12:59;;;;;;;;;2.00;2.00;;;;;;;;5017717;28;8865;-75
2022/08/22 11:15:47;;;;;;;;;3.00;3.00;;;;;;;;5018102;28;10348;-76
2022/08/22 11:18:20;;;;;;;;;0.80;0.00;;;;;;;;5018446;28;9609;-79
2022/08/22 11:20:58;;;;;;;;;2.00;2.00;;;;;;;;5017697;28;8899;-78
2022/08/22 11:23:36;;;;;;;;;3.60;3.60;;;;;;;;5021255;28;8909;-77
2022/08/22 11:26:12;;;;;;;;;5.00;3.40;;;;;;;;5007875;28;8887;-76
2022/08/22 11:29:00;;;;;;;;;4.40;2.80;;;;;;;;5019448;28;8911;-76
2022/08/22 11:31:37;;;;;;;;;5.40;3.00;;;;;;;;5017624;28;8841;-73
2022/08/22 11:34:11;;;;;;;;;4.00;4.00;;;;;;;;5018493;28;9010;-73
2022/08/22 11:36:44;;;;;;;;;1.20;1.20;;;;;;;;5001585;28;8905;-72
2022/08/22 11:39:24;;;;;;;;;3.20;3.20;;;;;;;;5018107;28;8883;-81
2022/08/22 11:41:58;;;;;;;;;2.20;2.20;;;;;;;;5021494;28;8860;-74
2022/08/22 11:44:30;;;;;;;;;3.20;3.20;;;;;;;;5021778;28;8872;-74
2022/08/22 11:46:58;;;;;;;;;2.80;2.80;;;;;;;;5018062;28;8894;-76
2022/08/22 11:49:41;;;;;;;;;4.40;2.40;;;;;;;;5019453;28;8892;-74
2022/08/22 11:52:30;;;;;;;;;2.80;2.80;;;;;;;;5016156;28;8857;-82
2022/08/22 11:55:18;;;;;;;;;2.80;2.80;;;;;;;;5014473;28;8876;-83
2022/08/22 11:57:48;;;;;;;;;3.00;3.00;;;;;;;;5016803;28;8864;-75
2022/08/22 12:00:28;;;;;;;;;2.80;2.80;;;;;;;;5005560;28;9473;-75
2022/08/22 12:03:38;;;;;;;;;3.40;3.00;;;;;;;;5024938;28;8951;-74
2022/08/22 12:06:10;;;;;;;;;3.80;3.80;;;;;;;;5005501;28;9006;-74
2022/08/22 12:09:11;;;;;;;;;2.80;2.80;;;;;;;;5022490;28;8869;-75
2022/08/22 12:11:49;;;;;;;;;2.40;2.40;;;;;;;;5022454;28;8934;-76
2022/08/22 12:14:22;;;;;;;;;2.00;2.00;;;;;;;;5025153;28;8881;-76
2022/08/22 12:17:09;;;;;;;;;3.00;3.00;;;;;;;;5021934;28;8884;-75
2022/08/22 12:19:41;;;;;;;;;3.20;3.20;;;;;;;;5023982;28;8889;-76
2022/08/22 12:22:45;;;;;;;;;3.60;3.60;;;;;;;;5024398;28;8864;-76
2022/08/22 12:25:19;;;;;;;;;2.00;2.00;;;;;;;;5025366;28;8950;-76
2022/08/22 12:27:59;;;;;;;;;3.40;3.40;;;;;;;;5022555;28;8880;-76
2022/08/22 12:30:33;;;;;;;;;2.80;2.80;;;;;;;;5023463;28;8812;-76
2022/08/22 12:33:22;;;;;;;;;3.60;2.00;;;;;;;;5024970;28;9382;-76
2022/08/22 12:35:57;;;;;;;;;2.60;2.00;;;;;;;;5023926;28;8905;-76
2022/08/22 12:38:39;;;;;;;;;3.00;3.00;;;;;;;;5023484;28;8911;-76
2022/08/22 12:41:47;;;;;;;;;3.00;2.00;;;;;;;;5022870;28;9683;-76
2022/08/22 12:44:27;;;;;;;;;3.80;2.60;;;;;;;;5021610;28;8873;-76
2022/08/22 12:47:11;;;;;;;;;3.00;2.80;;;;;;;;5024783;28;8893;-76
2022/08/22 12:49:57;;;;;;;;;3.00;2.80;;;;;;;;5024336;28;8849;-76
2022/08/22 12:52:36;;;;;;;;;3.20;3.20;;;;;;;;5023820;28;8899;-76
2022/08/22 12:55:32;;;;;;;;;2.80;2.80;;;;;;;;5021899;28;8869;-75
2022/08/22 12:58:06;;;;;;;;;3.80;3.60;;;;;;;;5023500;28;8856;-77
2022/08/22 13:00:38;;;;;;;;;3.00;1.20;;;;;;;;5022465;28;8837;-75
2022/08/22 13:03:09;;;;;;;;;3.20;3.20;;;;;;;;5021441;28;8892;-76
2022/08/22 13:05:38;;;;;;;;;3.60;2.00;;;;;;;;5024338;28;8904;-76
2022/08/22 13:08:09;;;;;;;;;1.80;1.80;;;;;;;;5022876;28;8880;-76
2022/08/22 13:10:41;;;;;;;;;4.80;3.00;;;;;;;;5021441;28;8908;-75
2022/08/22 13:13:10;;;;;;;;;4.80;2.20;;;;;;;;5021181;28;8978;-76
2022/08/22 13:15:45;;;;;;;;;1.80;1.80;;;;;;;;5023689;28;8872;-76
2022/08/22 13:18:16;;;;;;;;;2.20;2.20;;;;;;;;5019162;28;8912;-76
2022/08/22 13:20:47;;;;;;;;;3.40;3.00;;;;;;;;5024388;28;8884;-76
2022/08/22 13:23:18;;;;;;;;;2.40;2.40;;;;;;;;5023299;28;8915;-76
2022/08/22 13:26:11;;;;;;;;;2.80;2.80;;;;;;;;5023410;28;8873;-76
2022/08/22 13:28:44;;;;;;;;;2.00;1.80;;;;;;;;5009055;28;8881;-76
2022/08/22 13:31:24;;;;;;;;;5.60;3.00;;;;;;;;5022519;28;8816;-76
2022/08/22 13:33:52;;;;;;;;;6.00;4.20;;;;;;;;5024302;28;8886;-76
2022/08/22 13:36:21;;;;;;;;;2.80;2.80;;;;;;;;5021767;28;8962;-77
2022/08/22 13:38:53;;;;;;;;;3.00;3.00;;;;;;;;5020951;28;8877;-74
2022/08/22 13:41:23;;;;;;;;;2.80;2.80;;;;;;;;5021278;28;8991;-73
2022/08/22 13:44:14;;;;;;;;;3.80;3.80;;;;;;;;5019813;28;8995;-77
2022/08/22 13:46:43;;;;;;;;;2.40;2.40;;;;;;;;5022661;28;8861;-76
2022/08/22 13:49:12;;;;;;;;;1.00;1.00;;;;;;;;5021131;28;8872;-75
2022/08/22 13:51:46;;;;;;;;;2.60;2.60;;;;;;;;5022721;28;8880;-74
2022/08/22 13:54:33;;;;;;;;;3.60;3.60;;;;;;;;5018019;28;8868;-77
2022/08/22 13:57:06;;;;;;;;;3.00;3.00;;;;;;;;5019370;28;8888;-74
2022/08/22 13:59:39;;;;;;;;;1.80;1.80;;;;;;;;5020020;28;8864;-74
2022/08/22 14:02:17;;;;;;;;;3.80;3.00;;;;;;;;5007312;28;8832;-74
2022/08/22 14:04:45;;;;;;;;;2.40;2.40;;;;;;;;5020611;28;8938;-76
2022/08/22 14:07:29;;;;;;;;;2.80;2.80;;;;;;;;5021621;28;8880;-76
2022/08/22 14:10:00;;;;;;;;;4.00;4.00;;;;;;;;5020672;28;8853;-77
2022/08/22 14:12:31;;;;;;;;;2.00;2.00;;;;;;;;5021518;28;8894;-76
2022/08/22 14:15:01;;;;;;;;;3.00;3.00;;;;;;;;5010150;28;8873;-76
2022/08/22 14:17:33;;;;;;;;;3.80;2.60;;;;;;;;5022406;28;9723;-77
2022/08/22 14:20:06;;;;;;;;;2.60;1.00;;;;;;;;5021443;28;8904;-77
2022/08/22 14:22:35;;;;;;;;;3.80;3.80;;;;;;;;5019435;28;8954;-77
2022/08/22 14:25:06;;;;;;;;;4.20;1.60;;;;;;;;5022154;28;8876;-77
2022/08/22 14:27:35;;;;;;;;;6.00;3.00;;;;;;;;5021815;28;8904;-80
2022/08/22 14:30:06;;;;;;;;;2.80;2.80;;;;;;;;5020532;28;8869;-76
2022/08/22 14:32:45;;;;;;;;;5.00;3.20;;;;;;;;5018774;28;8931;-77
2022/08/22 14:35:18;;;;;;;;;2.00;2.00;;;;;;;;5022310;28;8957;-76
2022/08/22 14:37:48;;;;;;;;;3.60;2.80;;;;;;;;5021040;28;8880;-76
2022/08/22 14:40:22;;;;;;;;;2.80;2.80;;;;;;;;5022753;28;8888;-79
2022/08/22 14:42:53;;;;;;;;;1.80;1.80;;;;;;;;5020410;28;8822;-77
2022/08/22 14:45:26;;;;;;;;;5.00;3.80;;;;;;;;5021203;28;8864;-76
2022/08/22 14:47:58;;;;;;;;;1.80;1.80;;;;;;;;5018932;28;8885;-76
2022/08/22 14:50:42;;;;;;;;;2.60;1.80;;;;;;;;5019827;28;8898;-76
2022/08/22 14:53:11;;;;;;;;;2.40;2.00;;;;;;;;5019974;28;8990;-84
2022/08/22 14:55:40;;;;;;;;;3.00;3.00;;;;;;;;5020446;28;8915;-77
2022/08/22 14:58:15;;;;;;;;;1.00;1.00;;;;;;;;5019390;28;9031;-76
2022/08/22 15:00:45;;;;;;;;;3.20;1.80;;;;;;;;5019530;28;8839;-77
2022/08/22 15:03:22;;;;;;;;;2.60;2.60;;;;;;;;5018962;28;8899;-74
2022/08/22 15:05:53;;;;;;;;;2.20;2.20;;;;;;;;5020111;28;8880;-77
2022/08/22 15:08:26;;;;;;;;;2.00;2.00;;;;;;;;5020222;28;8872;-75
2022/08/22 15:11:20;;;;;;;;;2.00;2.00;;;;;;;;5021967;28;8869;-75
2022/08/22 15:13:53;;;;;;;;;2.60;2.00;;;;;;;;5019205;28;8871;-76
2022/08/22 15:16:23;;;;;;;;;1.40;1.40;;;;;;;;5018863;28;8841;-76
2022/08/22 15:18:52;;;;;;;;;1.80;1.80;;;;;;;;5022367;28;8865;-76
2022/08/22 15:21:23;;;;;;;;;2.00;2.00;;;;;;;;5021487;28;8868;-77
2022/08/22 15:23:53;;;;;;;;;1.40;1.40;;;;;;;;5021068;28;8864;-76
2022/08/22 15:26:28;;;;;;;;;3.00;3.00;;;;;;;;5019231;28;8872;-77
2022/08/22 15:29:08;;;;;;;;;2.20;2.00;;;;;;;;5020470;28;8892;-77
2022/08/22 15:31:40;;;;;;;;;2.60;2.00;;;;;;;;5020541;28;8809;-77
2022/08/22 15:34:11;;;;;;;;;4.60;3.00;;;;;;;;5019803;28;8998;-76
2022/08/22 15:37:07;;;;;;;;;2.00;2.00;;;;;;;;5020777;28;8918;-76
2022/08/22 15:39:37;;;;;;;;;1.80;1.80;;;;;;;;5018404;28;9634;-76
2022/08/22 15:42:04;;;;;;;;;2.00;2.00;;;;;;;;5020169;28;8882;-78
2022/08/22 15:44:35;;;;;;;;;3.40;1.80;;;;;;;;5022000;28;8887;-79
2022/08/22 15:47:24;;;;;;;;;2.80;2.80;;;;;;;;5020407;28;8961;-82
2022/08/22 15:49:56;;;;;;;;;2.00;2.00;;;;;;;;5032330;28;8958;-78
2022/08/22 15:52:27;;;;;;;;;1.00;1.00;;;;;;;;5018915;28;8879;-76
2022/08/22 15:55:28;;;;;;;;;3.00;1.40;;;;;;;;5020686;28;8915;-82
2022/08/22 15:58:03;;;;;;;;;1.20;1.20;;;;;;;;5020437;28;8868;-75
2022/08/22 16:00:34;;;;;;;;;1.00;1.00;;;;;;;;5018740;28;8818;-76